createdAt,value
2018-03-01T00:00:34.856Z,84.90
2018-03-01T00:01:38.863Z,84.90
2018-03-01T00:02:42.885Z,85.10
2018-03-01T00:03:46.864Z,84.90
2018-03-01T00:04:50.991Z,85.00
2018-03-01T00:05:54.224Z,85.00
2018-03-01T00:06:57.498Z,85.20
2018-03-01T00:08:00.739Z,85.20
2018-03-01T00:09:03.989Z,85.20
2018-03-01T00:10:07.208Z,85.20
2018-03-01T00:11:10.440Z,85.30
2018-03-01T00:12:13.713Z,85.70
2018-03-01T00:13:16.949Z,85.70
2018-03-01T00:14:20.210Z,85.70
2018-03-01T00:15:23.430Z,85.70
2018-03-01T00:16:26.666Z,85.70
2018-03-01T00:17:29.904Z,85.50
2018-03-01T00:18:33.126Z,85.80
2018-03-01T00:19:36.353Z,85.20
2018-03-01T00:20:39.600Z,85.50
2018-03-01T00:21:42.832Z,85.70
2018-03-01T00:22:46.074Z,85.60
2018-03-01T00:23:50.109Z,86.00
2018-03-01T00:24:53.344Z,86.00
2018-03-01T00:25:56.578Z,86.00
2018-03-01T00:26:59.831Z,85.90
2018-03-01T00:28:03.817Z,85.60
2018-03-01T00:29:07.841Z,85.60
2018-03-01T00:30:11.056Z,85.60
2018-03-01T00:31:14.285Z,85.70
2018-03-01T00:32:18.292Z,85.90
2018-03-01T00:33:21.529Z,85.90
2018-03-01T00:34:24.752Z,85.80
2018-03-01T00:35:28.759Z,86.10
2018-03-01T00:36:32.765Z,86.40
2018-03-01T00:37:36.809Z,86.00
2018-03-01T00:38:40.064Z,86.00
2018-03-01T00:39:43.357Z,86.40
2018-03-01T00:40:46.737Z,85.90
2018-03-01T00:41:50.720Z,85.40
2018-03-01T00:42:54.741Z,85.30
2018-03-01T00:43:57.980Z,85.30
2018-03-01T00:45:01.225Z,85.20
2018-03-01T00:46:04.470Z,85.70
2018-03-01T00:47:08.469Z,86.20
2018-03-01T00:48:12.472Z,85.90
2018-03-01T00:49:16.461Z,85.90
2018-03-01T00:50:20.476Z,86.20
2018-03-01T00:51:24.499Z,86.50
2018-03-01T00:52:27.723Z,85.90
2018-03-01T00:53:30.937Z,85.90
2018-03-01T00:54:34.949Z,86.00
2018-03-01T00:55:38.946Z,85.80
2018-03-01T00:56:42.938Z,86.00
2018-03-01T00:57:46.933Z,86.80
2018-03-01T00:58:50.922Z,86.20
2018-03-01T00:59:54.194Z,86.20
2018-03-01T01:00:57.379Z,86.30
2018-03-01T01:02:01.394Z,85.90
2018-03-01T01:03:04.621Z,85.90
2018-03-01T01:04:07.844Z,85.90
2018-03-01T01:05:11.078Z,85.90
2018-03-01T01:06:14.314Z,86.00
2018-03-01T01:07:17.588Z,85.90
2018-03-01T01:08:20.828Z,86.10
2018-03-01T01:09:24.062Z,86.30
2018-03-01T01:10:27.292Z,86.50
2018-03-01T01:11:30.526Z,86.60
2018-03-01T01:12:33.755Z,86.60
2018-03-01T01:13:36.989Z,87.00
2018-03-01T01:14:40.213Z,87.10
2018-03-01T01:15:43.461Z,87.60
2018-03-01T01:16:46.680Z,87.90
2018-03-01T01:17:50.668Z,88.10
2018-03-01T01:18:53.908Z,88.00
2018-03-01T01:19:57.129Z,87.90
2018-03-01T01:21:01.140Z,87.80
2018-03-01T01:22:05.128Z,87.90
2018-03-01T01:23:09.113Z,87.90
2018-03-01T01:24:13.918Z,87.90
2018-03-01T01:25:17.109Z,87.90
2018-03-01T01:26:20.353Z,87.90
2018-03-01T01:27:23.573Z,88.20
2018-03-01T01:28:26.821Z,87.70
2018-03-01T01:29:30.037Z,87.40
2018-03-01T01:30:33.272Z,87.40
2018-03-01T01:31:36.527Z,87.30
2018-03-01T01:32:40.539Z,87.80
2018-03-01T01:33:44.525Z,88.10
2018-03-01T01:34:47.742Z,88.10
2018-03-01T01:35:50.962Z,87.60
2018-03-01T01:36:54.185Z,88.10
2018-03-01T01:37:58.175Z,88.00
2018-03-01T01:39:02.176Z,88.00
2018-03-01T01:40:06.160Z,88.10
2018-03-01T01:41:09.483Z,88.10
2018-03-01T01:42:12.717Z,88.00
2018-03-01T01:43:15.936Z,88.00
2018-03-01T01:44:19.928Z,88.20
2018-03-01T01:45:23.934Z,88.20
2018-03-01T01:46:27.925Z,88.00
2018-03-01T01:47:31.928Z,88.10
2018-03-01T01:48:35.922Z,88.10
2018-03-01T01:49:39.166Z,88.60
2018-03-01T01:52:18.379Z,87.60
2018-03-01T01:53:24.069Z,87.60
2018-03-01T01:54:27.314Z,87.50
2018-03-01T01:55:30.572Z,87.60
2018-03-01T01:56:34.583Z,87.80
2018-03-01T01:57:37.811Z,87.80
2018-03-01T01:58:41.046Z,88.10
2018-03-01T01:59:44.298Z,88.20
2018-03-01T02:00:47.520Z,88.40
2018-03-01T02:01:50.756Z,88.40
2018-03-01T02:02:54.790Z,88.40
2018-03-01T02:03:58.794Z,88.60
2018-03-01T02:05:02.028Z,88.60
2018-03-01T02:06:05.267Z,88.50
2018-03-01T02:07:08.492Z,88.10
2018-03-01T02:08:11.760Z,88.30
2018-03-01T02:09:14.964Z,88.70
2018-03-01T02:10:18.190Z,88.90
2018-03-01T02:11:21.434Z,88.80
2018-03-01T02:12:24.749Z,88.60
2018-03-01T02:13:28.756Z,88.30
2018-03-01T02:14:31.975Z,88.30
2018-03-01T02:15:35.215Z,88.50
2018-03-01T02:16:38.458Z,88.50
2018-03-01T02:17:41.736Z,88.40
2018-03-01T02:18:44.945Z,88.40
2018-03-01T02:19:48.957Z,87.80
2018-03-01T02:20:52.953Z,87.90
2018-03-01T02:21:56.949Z,87.90
2018-03-01T02:23:00.175Z,87.90
2018-03-01T02:24:03.406Z,87.70
2018-03-01T02:25:06.637Z,87.50
2018-03-01T02:26:09.918Z,88.10
2018-03-01T02:27:13.142Z,87.80
2018-03-01T02:28:17.920Z,87.60
2018-03-01T02:29:21.134Z,87.60
2018-03-01T02:30:26.166Z,87.90
2018-03-01T02:31:29.398Z,87.70
2018-03-01T02:32:33.410Z,87.50
2018-03-01T02:33:36.627Z,87.50
2018-03-01T02:34:39.862Z,87.50
2018-03-01T02:35:43.164Z,87.90
2018-03-01T02:36:46.398Z,87.50
2018-03-01T02:37:49.628Z,87.90
2018-03-01T02:38:52.864Z,88.80
2018-03-01T02:39:56.127Z,88.60
2018-03-01T02:40:59.364Z,88.50
2018-03-01T02:42:02.600Z,88.70
2018-03-01T02:43:05.840Z,88.70
2018-03-01T02:44:09.058Z,88.60
2018-03-01T02:45:12.287Z,88.50
2018-03-01T02:46:15.545Z,88.80
2018-03-01T02:47:18.834Z,88.10
2018-03-01T02:48:22.849Z,88.30
2018-03-01T02:49:26.853Z,88.70
2018-03-01T02:50:30.856Z,88.70
2018-03-01T02:51:34.844Z,88.60
2018-03-01T02:52:38.875Z,88.40
2018-03-01T02:53:42.081Z,88.40
2018-03-01T02:54:45.310Z,88.40
2018-03-01T02:55:49.312Z,88.40
2018-03-01T02:56:53.301Z,88.50
2018-03-01T02:57:56.529Z,88.40
2018-03-01T02:58:59.744Z,88.50
2018-03-01T03:00:03.762Z,88.20
2018-03-01T03:01:07.027Z,88.20
2018-03-01T03:02:10.237Z,88.10
2018-03-01T03:03:13.466Z,87.90
2018-03-01T03:04:16.771Z,87.90
2018-03-01T03:05:20.013Z,88.00
2018-03-01T03:06:23.283Z,88.30
2018-03-01T03:07:27.396Z,88.40
2018-03-01T03:08:31.419Z,88.60
2018-03-01T03:09:35.429Z,88.70
2018-03-01T03:10:38.690Z,88.60
2018-03-01T03:11:42.699Z,88.60
2018-03-01T03:12:45.969Z,88.60
2018-03-01T03:13:49.213Z,89.00
2018-03-01T03:14:52.457Z,88.90
2018-03-01T03:15:55.680Z,89.00
2018-03-01T03:16:59.009Z,88.90
2018-03-01T03:18:02.237Z,88.70
2018-03-01T03:19:05.490Z,88.50
2018-03-01T03:20:08.730Z,88.50
2018-03-01T03:21:12.705Z,89.30
2018-03-01T03:22:15.943Z,88.70
2018-03-01T03:23:19.169Z,89.30
2018-03-01T03:24:22.427Z,88.90
2018-03-01T03:25:25.711Z,88.50
2018-03-01T03:26:28.961Z,88.30
2018-03-01T03:27:32.970Z,88.30
2018-03-01T03:28:37.015Z,88.40
2018-03-01T03:29:40.296Z,88.30
2018-03-01T03:30:43.505Z,88.20
2018-03-01T03:31:46.788Z,88.80
2018-03-01T03:32:50.026Z,88.10
2018-03-01T03:33:53.310Z,88.20
2018-03-01T03:34:56.582Z,88.40
2018-03-01T03:35:59.870Z,88.30
2018-03-01T03:37:03.112Z,88.30
2018-03-01T03:38:07.161Z,88.80
2018-03-01T03:39:10.438Z,88.80
2018-03-01T03:40:13.710Z,89.10
2018-03-01T03:41:17.719Z,89.30
2018-03-01T03:42:20.974Z,89.30
2018-03-01T03:43:25.024Z,88.90
2018-03-01T03:44:28.274Z,88.90
2018-03-01T03:45:31.485Z,89.50
2018-03-01T03:46:34.746Z,89.50
2018-03-01T03:47:38.026Z,88.80
2018-03-01T03:48:42.033Z,88.50
2018-03-01T03:49:45.291Z,88.50
2018-03-01T03:50:48.541Z,88.90
2018-03-01T03:53:01.353Z,88.20
2018-03-01T03:54:04.605Z,88.10
2018-03-01T03:55:07.855Z,88.40
2018-03-01T03:56:11.080Z,88.30
2018-03-01T03:57:14.325Z,88.40
2018-03-01T03:58:18.319Z,88.30
2018-03-01T03:59:21.586Z,88.30
2018-03-01T04:00:24.806Z,88.40
2018-03-01T04:01:28.090Z,88.30
2018-03-01T04:02:32.178Z,88.60
2018-03-01T04:03:35.455Z,88.50
2018-03-01T04:04:38.656Z,88.70
2018-03-01T04:05:42.738Z,89.30
2018-03-01T04:06:46.002Z,89.30
2018-03-01T04:07:49.267Z,89.50
2018-03-01T04:08:52.692Z,89.60
2018-03-01T04:09:55.936Z,89.20
2018-03-01T04:10:59.186Z,88.80
2018-03-01T04:12:02.463Z,88.50
2018-03-01T04:13:05.726Z,88.40
2018-03-01T04:14:09.774Z,88.60
2018-03-01T04:15:13.025Z,88.60
2018-03-01T04:16:17.115Z,88.90
2018-03-01T04:17:21.222Z,89.20
2018-03-01T04:18:25.314Z,88.70
2018-03-01T04:19:28.561Z,88.60
2018-03-01T04:20:31.890Z,88.70
2018-03-01T04:21:35.924Z,88.70
2018-03-01T04:22:39.172Z,88.60
2018-03-01T04:23:43.193Z,88.70
2018-03-01T04:24:47.189Z,89.00
2018-03-01T04:25:51.202Z,89.20
2018-03-01T04:26:54.461Z,89.20
2018-03-01T04:27:58.643Z,89.50
2018-03-01T04:29:01.900Z,89.00
2018-03-01T04:30:05.126Z,88.80
2018-03-01T04:31:08.418Z,88.80
2018-03-01T04:32:11.633Z,88.70
2018-03-01T04:33:14.869Z,88.60
2018-03-01T04:34:18.103Z,88.40
2018-03-01T04:35:21.343Z,88.50
2018-03-01T04:36:25.322Z,88.50
2018-03-01T04:37:28.616Z,88.50
2018-03-01T04:38:32.731Z,88.60
2018-03-01T04:39:35.954Z,88.90
2018-03-01T04:40:39.209Z,89.00
2018-03-01T04:41:43.212Z,88.90
2018-03-01T04:42:46.538Z,88.80
2018-03-01T04:43:49.805Z,88.80
2018-03-01T04:44:53.055Z,88.80
2018-03-01T04:45:56.344Z,89.00
2018-03-01T04:46:59.558Z,89.20
2018-03-01T04:48:02.845Z,89.40
2018-03-01T04:49:06.122Z,89.40
2018-03-01T04:50:09.394Z,89.40
2018-03-01T04:51:12.760Z,89.50
2018-03-01T04:52:17.313Z,89.40
2018-03-01T04:53:20.580Z,89.30
2018-03-01T04:54:23.833Z,89.00
2018-03-01T04:55:27.049Z,88.90
2018-03-01T04:56:30.281Z,89.10
2018-03-01T04:57:33.518Z,89.00
2018-03-01T04:58:36.791Z,88.90
2018-03-01T04:59:40.123Z,89.20
2018-03-01T05:00:43.368Z,89.30
2018-03-01T05:01:46.615Z,89.30
2018-03-01T05:02:49.837Z,90.00
2018-03-01T05:03:53.089Z,89.90
2018-03-01T05:04:57.116Z,89.10
2018-03-01T05:06:00.408Z,89.10
2018-03-01T05:07:03.827Z,89.10
2018-03-01T05:08:07.111Z,89.20
2018-03-01T05:09:10.356Z,89.30
2018-03-01T05:10:13.611Z,89.20
2018-03-01T05:11:17.609Z,89.60
2018-03-01T05:12:21.641Z,89.60
2018-03-01T05:13:24.868Z,89.60
2018-03-01T05:14:28.086Z,89.70
2018-03-01T05:15:32.113Z,89.70
2018-03-01T05:16:35.365Z,89.70
2018-03-01T05:17:39.426Z,89.70
2018-03-01T05:18:42.719Z,89.70
2018-03-01T05:19:45.949Z,89.60
2018-03-01T05:20:49.978Z,89.50
2018-03-01T05:21:53.264Z,89.50
2018-03-01T05:22:56.499Z,89.40
2018-03-01T05:24:00.504Z,89.60
2018-03-01T05:25:03.780Z,89.60
2018-03-01T05:26:07.795Z,89.60
2018-03-01T05:27:11.802Z,89.70
2018-03-01T05:28:15.071Z,89.70
2018-03-01T05:29:18.528Z,89.50
2018-03-01T05:30:21.821Z,89.30
2018-03-01T05:31:25.202Z,88.90
2018-03-01T05:32:28.447Z,89.10
2018-03-01T05:33:31.671Z,89.40
2018-03-01T05:34:34.967Z,88.90
2018-03-01T05:35:38.203Z,88.90
2018-03-01T05:36:41.439Z,88.80
2018-03-01T05:37:45.459Z,88.90
2018-03-01T05:38:48.747Z,88.90
2018-03-01T05:39:51.971Z,88.80
2018-03-01T05:40:55.213Z,88.70
2018-03-01T05:41:59.234Z,88.50
2018-03-01T05:43:02.498Z,88.50
2018-03-01T05:44:05.751Z,88.60
2018-03-01T05:45:09.007Z,88.50
2018-03-01T05:46:12.284Z,88.70
2018-03-01T05:47:15.576Z,89.20
2018-03-01T05:48:18.878Z,88.60
2018-03-01T05:49:22.084Z,88.70
2018-03-01T05:50:26.387Z,88.50
2018-03-01T05:51:30.450Z,88.90
2018-03-01T05:52:33.793Z,88.90
2018-03-01T05:53:37.848Z,89.40
2018-03-01T05:54:41.141Z,89.40
2018-03-01T05:55:44.419Z,89.40
2018-03-01T05:56:47.710Z,89.30
2018-03-01T05:57:50.938Z,89.30
2018-03-01T05:58:54.195Z,89.30
2018-03-01T05:59:58.241Z,89.10
2018-03-01T06:01:01.477Z,89.10
2018-03-01T06:02:04.710Z,89.20
2018-03-01T06:03:07.953Z,89.40
2018-03-01T06:04:11.987Z,89.10
2018-03-01T06:05:15.242Z,89.10
2018-03-01T06:06:19.242Z,88.70
2018-03-01T06:07:23.252Z,88.60
2018-03-01T06:08:27.263Z,88.70
2018-03-01T06:09:30.534Z,88.70
2018-03-01T06:10:33.799Z,88.90
2018-03-01T06:11:37.031Z,88.90
2018-03-01T06:12:40.369Z,88.90
2018-03-01T06:13:43.640Z,88.90
2018-03-01T06:14:46.956Z,89.10
2018-03-01T06:15:51.099Z,89.00
2018-03-01T06:16:54.404Z,89.00
2018-03-01T06:17:57.644Z,88.80
2018-03-01T06:19:00.881Z,91.30
2018-03-01T06:20:04.116Z,90.30
2018-03-01T06:21:07.344Z,89.70
2018-03-01T06:22:10.600Z,89.40
2018-03-01T06:23:13.825Z,89.10
2018-03-01T06:24:17.815Z,89.30
2018-03-01T06:25:21.070Z,89.20
2018-03-01T06:26:24.298Z,89.10
2018-03-01T06:27:27.556Z,89.30
2018-03-01T06:28:30.810Z,89.40
2018-03-01T06:29:34.030Z,89.70
2018-03-01T06:30:38.034Z,90.10
2018-03-01T06:31:42.021Z,89.60
2018-03-01T06:32:45.390Z,89.50
2018-03-01T06:33:48.598Z,89.60
2018-03-01T06:34:53.359Z,89.40
2018-03-01T06:35:56.606Z,89.30
2018-03-01T06:37:00.674Z,88.90
2018-03-01T06:38:03.870Z,88.80
2018-03-01T06:39:07.131Z,88.90
2018-03-01T06:40:10.426Z,88.90
2018-03-01T06:41:13.691Z,88.50
2018-03-01T06:42:16.941Z,88.40
2018-03-01T06:43:20.201Z,88.70
2018-03-01T06:44:24.365Z,89.00
2018-03-01T06:45:27.593Z,88.70
2018-03-01T06:46:31.589Z,89.00
2018-03-01T06:47:35.626Z,88.70
2018-03-01T06:48:38.871Z,88.70
2018-03-01T06:49:42.114Z,88.10
2018-03-01T06:50:45.334Z,87.80
2018-03-01T06:51:48.602Z,87.60
2018-03-01T06:52:51.857Z,87.60
2018-03-01T06:53:55.100Z,87.80
2018-03-01T06:54:58.414Z,88.00
2018-03-01T06:56:01.939Z,87.80
2018-03-01T06:57:05.182Z,87.90
2018-03-01T06:58:08.433Z,87.80
2018-03-01T06:59:11.864Z,87.70
2018-03-01T07:00:15.150Z,87.70
2018-03-01T07:01:18.392Z,88.20
2018-03-01T07:02:22.413Z,88.50
2018-03-01T07:03:25.653Z,88.00
2018-03-01T07:04:28.894Z,88.10
2018-03-01T07:05:32.212Z,88.00
2018-03-01T07:06:35.499Z,88.00
2018-03-01T07:07:38.756Z,87.70
2018-03-01T07:08:42.034Z,87.80
2018-03-01T07:09:45.466Z,88.00
2018-03-01T07:10:48.728Z,87.70
2018-03-01T07:11:51.990Z,88.10
2018-03-01T07:12:55.236Z,88.20
2018-03-01T07:13:59.268Z,87.90
2018-03-01T07:15:02.512Z,87.80
2018-03-01T07:16:05.752Z,87.50
2018-03-01T07:17:08.964Z,87.50
2018-03-01T07:18:12.241Z,87.30
2018-03-01T07:19:15.525Z,87.60
2018-03-01T07:20:18.728Z,87.90
2018-03-01T07:21:22.718Z,88.00
2018-03-01T07:22:26.057Z,88.00
2018-03-01T07:23:29.312Z,87.50
2018-03-01T07:24:32.554Z,87.80
2018-03-01T07:25:36.594Z,87.90
2018-03-01T07:26:40.587Z,87.80
2018-03-01T07:27:44.622Z,87.10
2018-03-01T07:28:47.858Z,87.10
2018-03-01T07:29:51.092Z,86.60
2018-03-01T07:30:54.321Z,86.60
2018-03-01T07:31:57.573Z,86.50
2018-03-01T07:33:00.941Z,86.70
2018-03-01T07:34:04.148Z,86.60
2018-03-01T07:35:07.394Z,86.60
2018-03-01T07:36:10.649Z,86.80
2018-03-01T07:37:14.819Z,86.70
2018-03-01T07:38:18.233Z,86.40
2018-03-01T07:39:21.495Z,86.30
2018-03-01T07:40:24.727Z,86.80
2018-03-01T07:41:28.766Z,86.30
2018-03-01T07:42:32.042Z,86.30
2018-03-01T07:43:35.379Z,86.50
2018-03-01T07:44:39.418Z,87.10
2018-03-01T07:45:42.810Z,87.00
2018-03-01T07:46:46.109Z,87.20
2018-03-01T07:47:49.320Z,87.30
2018-03-01T07:48:52.653Z,87.10
2018-03-01T07:49:55.889Z,86.60
2018-03-01T07:50:59.222Z,86.50
2018-03-01T07:52:02.457Z,86.40
2018-03-01T07:53:05.776Z,86.30
2018-03-01T07:54:09.045Z,86.50
2018-03-01T07:55:13.027Z,86.30
2018-03-01T07:56:17.118Z,86.60
2018-03-01T07:57:20.354Z,86.00
2018-03-01T07:58:23.625Z,85.80
2018-03-01T07:59:27.589Z,86.20
2018-03-01T08:00:30.962Z,86.10
2018-03-01T08:01:34.152Z,86.40
2018-03-01T08:02:37.394Z,86.40
2018-03-01T08:03:40.613Z,86.00
2018-03-01T08:04:43.862Z,86.00
2018-03-01T08:05:47.149Z,86.10
2018-03-01T08:06:50.406Z,86.20
2018-03-01T08:07:54.445Z,86.50
2018-03-01T08:08:57.666Z,86.40
2018-03-01T08:10:00.910Z,86.30
2018-03-01T08:11:04.148Z,86.10
2018-03-01T08:12:07.393Z,86.00
2018-03-01T08:13:10.657Z,86.10
2018-03-01T08:14:13.895Z,86.20
2018-03-01T08:15:17.897Z,85.60
2018-03-01T08:16:21.896Z,85.50
2018-03-01T08:17:25.923Z,85.20
2018-03-01T08:18:29.153Z,85.20
2018-03-01T08:19:32.393Z,85.40
2018-03-01T08:20:35.675Z,85.50
2018-03-01T08:21:38.908Z,85.80
2018-03-01T08:22:42.228Z,85.90
2018-03-01T08:23:45.458Z,85.80
2018-03-01T08:24:48.726Z,85.60
2018-03-01T08:25:51.953Z,85.50
2018-03-01T08:26:55.966Z,85.10
2018-03-01T08:27:59.975Z,85.10
2018-03-01T08:29:03.986Z,85.40
2018-03-01T08:30:07.219Z,85.40
2018-03-01T08:31:10.466Z,85.20
2018-03-01T08:32:13.727Z,85.10
2018-03-01T08:33:16.986Z,84.50
2018-03-01T08:34:20.217Z,85.10
2018-03-01T08:35:23.500Z,85.30
2018-03-01T08:36:26.744Z,85.20
2018-03-01T08:37:30.773Z,84.60
2018-03-01T08:38:34.024Z,84.50
2018-03-01T08:39:37.407Z,84.40
2018-03-01T08:40:42.008Z,84.80
2018-03-01T08:41:45.241Z,84.30
2018-03-01T08:42:48.561Z,84.30
2018-03-01T08:43:51.759Z,84.50
2018-03-01T08:44:54.992Z,84.30
2018-03-01T08:45:58.233Z,84.20
2018-03-01T08:47:01.479Z,84.20
2018-03-01T08:48:04.790Z,83.60
2018-03-01T08:49:08.026Z,83.40
2018-03-01T08:50:11.280Z,83.50
2018-03-01T08:51:15.313Z,83.80
2018-03-01T08:52:18.534Z,83.60
2018-03-01T08:53:21.770Z,83.70
2018-03-01T08:54:25.153Z,83.40
2018-03-01T08:55:28.376Z,83.60
2018-03-01T08:56:31.635Z,83.50
2018-03-01T08:57:34.868Z,83.00
2018-03-01T08:58:38.118Z,82.90
2018-03-01T08:59:41.371Z,82.80
2018-03-01T09:00:44.623Z,82.60
2018-03-01T09:01:47.852Z,82.60
2018-03-01T09:02:51.090Z,82.80
2018-03-01T09:03:54.336Z,83.10
2018-03-01T09:04:57.577Z,83.20
2018-03-01T09:06:00.864Z,82.90
2018-03-01T09:07:04.115Z,82.90
2018-03-01T09:08:08.110Z,82.30
2018-03-01T09:09:12.119Z,81.80
2018-03-01T09:10:16.118Z,81.50
2018-03-01T09:11:20.132Z,81.60
2018-03-01T09:12:23.374Z,81.60
2018-03-01T09:13:26.634Z,81.20
2018-03-01T09:14:29.868Z,80.90
2018-03-01T09:15:33.872Z,80.90
2018-03-01T09:16:37.968Z,81.00
2018-03-01T09:17:41.957Z,80.80
2018-03-01T09:18:45.961Z,81.10
2018-03-01T09:19:49.970Z,81.40
2018-03-01T09:20:53.188Z,81.10
2018-03-01T09:21:56.436Z,81.30
2018-03-01T09:23:00.429Z,82.20
2018-03-01T09:24:04.457Z,82.20
2018-03-01T09:25:08.447Z,82.40
2018-03-01T09:26:12.564Z,82.20
2018-03-01T09:27:16.570Z,82.00
2018-03-01T09:28:19.809Z,82.00
2018-03-01T09:29:23.044Z,82.40
2018-03-01T09:30:26.269Z,81.80
2018-03-01T09:31:30.257Z,81.20
2018-03-01T09:32:33.501Z,81.30
2018-03-01T09:33:36.824Z,81.20
2018-03-01T09:34:40.153Z,81.50
2018-03-01T09:35:43.405Z,81.60
2018-03-01T09:36:46.639Z,81.50
2018-03-01T09:37:49.911Z,81.50
2018-03-01T09:38:53.153Z,82.10
2018-03-01T09:39:56.394Z,81.70
2018-03-01T09:40:59.635Z,81.80
2018-03-01T09:42:02.861Z,82.20
2018-03-01T09:43:06.375Z,82.00
2018-03-01T09:44:09.624Z,81.70
2018-03-01T09:45:12.861Z,82.00
2018-03-01T09:46:16.119Z,81.70
2018-03-01T09:47:19.429Z,81.50
2018-03-01T09:48:23.010Z,81.50
2018-03-01T09:49:26.265Z,81.60
2018-03-01T09:50:29.501Z,81.80
2018-03-01T09:51:33.544Z,82.00
2018-03-01T09:52:36.800Z,81.90
2018-03-01T09:53:40.806Z,81.20
2018-03-01T09:54:44.817Z,80.90
2018-03-01T09:55:48.061Z,80.90
2018-03-01T09:56:51.312Z,80.90
2018-03-01T09:57:54.567Z,81.20
2018-03-01T09:58:57.837Z,81.50
2018-03-01T10:00:01.059Z,81.50
2018-03-01T10:01:04.310Z,81.70
2018-03-01T10:02:07.545Z,81.50
2018-03-01T10:03:10.764Z,82.20
2018-03-01T10:04:14.748Z,82.30
2018-03-01T10:05:18.213Z,82.20
2018-03-01T10:06:21.495Z,81.80
2018-03-01T10:07:24.710Z,82.00
2018-03-01T10:08:28.017Z,81.50
2018-03-01T10:09:32.090Z,81.20
2018-03-01T10:10:35.331Z,81.20
2018-03-01T10:11:38.586Z,81.20
2018-03-01T10:12:41.834Z,81.00
2018-03-01T10:13:45.068Z,80.70
2018-03-01T10:14:48.363Z,80.40
2018-03-01T10:15:51.573Z,81.10
2018-03-01T10:16:54.804Z,81.20
2018-03-01T10:17:58.100Z,81.60
2018-03-01T10:19:01.377Z,81.90
2018-03-01T10:20:04.698Z,81.40
2018-03-01T10:21:07.904Z,80.80
2018-03-01T10:22:11.141Z,80.80
2018-03-01T10:23:14.384Z,80.70
2018-03-01T10:24:18.388Z,80.90
2018-03-01T10:25:21.605Z,80.90
2018-03-01T10:26:24.913Z,81.40
2018-03-01T10:27:28.150Z,82.20
2018-03-01T10:28:37.779Z,82.70
2018-03-01T10:29:46.657Z,82.70
2018-03-01T10:30:49.959Z,82.70
2018-03-01T10:31:53.138Z,83.00
2018-03-01T10:32:56.357Z,82.90
2018-03-01T10:33:59.593Z,82.50
2018-03-01T10:35:02.847Z,82.30
2018-03-01T10:36:06.090Z,81.60
2018-03-01T10:37:09.345Z,81.30
2018-03-01T10:38:12.593Z,81.20
2018-03-01T10:39:15.822Z,81.10
2018-03-01T10:40:19.824Z,81.80
2018-03-01T10:41:23.831Z,81.50
2018-03-01T10:42:27.857Z,81.40
2018-03-01T10:43:31.110Z,81.40
2018-03-01T10:44:34.364Z,81.00
2018-03-01T10:45:37.573Z,80.70
2018-03-01T10:46:41.586Z,81.00
2018-03-01T10:47:45.586Z,80.90
2018-03-01T10:48:49.582Z,80.90
2018-03-01T10:49:53.577Z,81.30
2018-03-01T10:50:57.589Z,80.90
2018-03-01T10:52:01.579Z,80.80
2018-03-01T10:53:05.590Z,80.50
2018-03-01T10:54:08.899Z,80.50
2018-03-01T10:55:12.158Z,80.40
2018-03-01T10:56:15.382Z,80.10
2018-03-01T10:57:18.640Z,80.70
2018-03-01T10:58:21.858Z,79.40
2018-03-01T10:59:25.140Z,79.60
2018-03-01T11:00:33.976Z,79.20
2018-03-01T11:01:37.228Z,79.00
2018-03-01T11:02:40.528Z,79.20
2018-03-01T11:03:43.762Z,79.40
2018-03-01T11:04:47.743Z,79.40
2018-03-01T11:05:51.738Z,79.00
2018-03-01T11:06:55.761Z,79.20
2018-03-01T11:07:59.749Z,79.30
2018-03-01T11:09:03.741Z,79.20
2018-03-01T11:10:07.740Z,79.00
2018-03-01T11:11:11.742Z,79.10
2018-03-01T11:12:14.986Z,79.10
2018-03-01T11:13:18.185Z,78.70
2018-03-01T11:14:21.423Z,78.50
2018-03-01T11:15:24.644Z,78.90
2018-03-01T11:16:27.981Z,79.00
2018-03-01T11:17:31.224Z,79.40
2018-03-01T11:18:34.466Z,79.00
2018-03-01T11:19:37.713Z,79.10
2018-03-01T11:20:41.705Z,79.20
2018-03-01T11:21:45.727Z,79.20
2018-03-01T11:22:49.724Z,79.10
2018-03-01T11:23:53.718Z,79.30
2018-03-01T11:24:57.719Z,79.50
2018-03-01T11:26:01.712Z,79.40
2018-03-01T11:27:05.702Z,79.40
2018-03-01T11:28:08.950Z,79.40
2018-03-01T11:29:12.235Z,79.90
2018-03-01T11:30:16.295Z,79.30
2018-03-01T11:31:19.576Z,79.30
2018-03-01T11:32:23.587Z,79.10
2018-03-01T11:33:26.809Z,79.10
2018-03-01T11:34:30.106Z,79.00
2018-03-01T11:35:33.322Z,78.70
2018-03-01T11:36:37.309Z,78.80
2018-03-01T11:37:40.557Z,78.80
2018-03-01T11:38:43.789Z,78.10
2018-03-01T11:39:47.811Z,78.20
2018-03-01T11:40:51.144Z,78.20
2018-03-01T11:41:54.397Z,78.70
2018-03-01T11:42:58.339Z,78.60
2018-03-01T11:44:01.592Z,78.60
2018-03-01T11:45:04.795Z,79.10
2018-03-01T11:46:08.128Z,79.20
2018-03-01T11:47:11.402Z,78.90
2018-03-01T11:48:14.655Z,78.70
2018-03-01T11:49:17.886Z,78.90
2018-03-01T11:50:21.114Z,79.40
2018-03-01T11:51:24.362Z,79.00
2018-03-01T11:52:27.592Z,78.60
2018-03-01T11:53:30.834Z,78.50
2018-03-01T11:54:34.066Z,78.80
2018-03-01T11:55:38.092Z,77.80
2018-03-01T11:56:42.093Z,78.00
2018-03-01T11:57:46.083Z,77.20
2018-03-01T11:58:50.086Z,77.60
2018-03-01T11:59:54.075Z,77.40
2018-03-01T12:00:58.159Z,77.60
2018-03-01T12:02:01.372Z,77.60
2018-03-01T12:03:04.712Z,77.80
2018-03-01T12:04:07.925Z,77.50
2018-03-01T12:05:11.906Z,76.50
2018-03-01T12:06:15.245Z,76.50
2018-03-01T12:07:18.460Z,76.90
2018-03-01T12:08:21.701Z,76.80
2018-03-01T12:09:24.957Z,75.40
2018-03-01T12:10:28.236Z,75.70
2018-03-01T12:11:31.460Z,76.10
2018-03-01T12:12:34.683Z,76.10
2018-03-01T12:13:37.925Z,75.90
2018-03-01T12:14:41.146Z,75.80
2018-03-01T12:15:44.394Z,74.90
2018-03-01T12:16:47.674Z,74.10
2018-03-01T12:17:51.094Z,74.90
2018-03-01T12:18:54.364Z,74.80
2018-03-01T12:19:57.602Z,74.80
2018-03-01T12:21:01.617Z,74.50
2018-03-01T12:22:04.966Z,74.60
2018-03-01T12:23:08.147Z,74.70
2018-03-01T12:24:11.372Z,74.50
2018-03-01T12:25:14.601Z,73.20
2018-03-01T12:26:17.852Z,73.40
2018-03-01T12:27:21.064Z,73.60
2018-03-01T12:28:24.309Z,74.10
2018-03-01T12:29:28.315Z,74.00
2018-03-01T12:30:31.539Z,73.90
2018-03-01T12:31:34.774Z,73.50
2018-03-01T12:32:38.016Z,73.20
2018-03-01T12:33:41.343Z,72.70
2018-03-01T12:34:44.575Z,72.80
2018-03-01T12:35:47.800Z,72.40
2018-03-01T12:36:51.054Z,72.70
2018-03-01T12:37:54.348Z,72.50
2018-03-01T12:38:57.551Z,72.40
2018-03-01T12:40:00.801Z,71.70
2018-03-01T12:41:04.028Z,71.50
2018-03-01T12:42:07.309Z,72.20
2018-03-01T12:43:10.535Z,72.70
2018-03-01T12:44:13.762Z,72.00
2018-03-01T12:45:17.846Z,70.40
2018-03-01T12:46:21.821Z,70.40
2018-03-01T12:47:25.056Z,70.40
2018-03-01T12:48:28.296Z,71.30
2018-03-01T12:49:31.528Z,71.60
2018-03-01T12:50:34.745Z,71.40
2018-03-01T12:51:38.008Z,71.60
2018-03-01T12:52:41.228Z,71.20
2018-03-01T12:53:44.449Z,70.40
2018-03-01T12:54:47.699Z,68.80
2018-03-01T12:55:50.918Z,68.50
2018-03-01T12:56:54.154Z,66.90
2018-03-01T12:57:57.375Z,66.30
2018-03-01T12:59:00.815Z,66.60
2018-03-01T13:00:04.008Z,66.60
2018-03-01T13:01:07.274Z,66.20
2018-03-01T13:02:10.499Z,65.50
2018-03-01T13:03:14.486Z,66.00
2018-03-01T13:04:19.924Z,65.00
2018-03-01T13:05:23.972Z,64.20
2018-03-01T13:06:27.909Z,64.80
2018-03-01T13:07:31.901Z,64.10
2018-03-01T13:08:35.129Z,63.80
2018-03-01T13:09:38.368Z,64.20
2018-03-01T13:10:42.403Z,64.10
2018-03-01T13:11:46.402Z,64.40
2018-03-01T13:12:50.393Z,65.30
2018-03-01T13:13:54.390Z,66.10
2018-03-01T13:14:58.399Z,64.00
2018-03-01T13:16:02.392Z,65.60
2018-03-01T13:17:06.472Z,66.60
2018-03-01T13:18:09.710Z,66.00
2018-03-01T13:19:12.942Z,66.20
2018-03-01T13:20:16.175Z,67.00
2018-03-01T13:21:19.404Z,67.20
2018-03-01T13:22:22.702Z,67.60
2018-03-01T13:23:25.935Z,67.80
2018-03-01T13:24:29.170Z,67.90
2018-03-01T13:25:32.838Z,67.10
2018-03-01T13:26:36.043Z,67.60
2018-03-01T13:27:39.271Z,67.60
2018-03-01T13:28:42.491Z,67.10
2018-03-01T13:29:45.723Z,66.00
2018-03-01T13:30:55.490Z,64.50
2018-03-01T13:32:13.406Z,63.70
2018-03-01T13:33:19.595Z,63.60
2018-03-01T13:34:22.820Z,61.60
2018-03-01T13:35:41.805Z,61.70
2018-03-01T13:36:45.010Z,59.70
2018-03-01T13:37:48.243Z,59.60
2018-03-01T13:38:51.487Z,59.90
2018-03-01T13:39:54.720Z,58.90
2018-03-01T13:40:57.954Z,58.20